Time;durP1;ratioP1;P1;durP2;ratioP2;P2;SDS_P1;SDS_P2;PMS_P1;PMS_P2;Temp;Humidity;BMP_temperature;BMP_pressure;BME280_temperature;BME280_humidity;BME280_pressure;Samples;Min_cycle;Max_cycle;Signal;HPM_P1;HPM_P2
2023/01/22 00:00:55;;;;;;;20.05;12.30;;;-1.50;99.90;;;;;;493953;241;27486;-73
2023/01/22 00:02:57;;;;;;;21.95;12.75;;;-1.50;99.90;;;;;;493975;241;27993;-73
2023/01/22 00:04:58;;;;;;;19.98;12.23;;;-1.50;99.90;;;;;;493989;241;29096;-73
2023/01/22 00:06:59;;;;;;;20.48;11.85;;;-1.50;99.90;;;;;;493988;241;27573;-73
2023/01/22 00:09:02;;;;;;;21.50;13.05;;;-1.50;99.90;;;;;;494017;241;27506;-73
2023/01/22 00:11:02;;;;;;;18.90;11.95;;;-1.50;99.90;;;;;;493864;241;27600;-73
2023/01/22 00:13:03;;;;;;;19.98;13.00;;;-1.50;99.90;;;;;;493999;241;27508;-73
2023/01/22 00:15:04;;;;;;;16.35;11.55;;;-1.50;99.90;;;;;;494002;241;27561;-73
2023/01/22 00:17:05;;;;;;;18.95;12.65;;;-1.40;99.90;;;;;;493994;241;28038;-73
2023/01/22 00:19:07;;;;;;;18.05;11.55;;;-1.40;99.90;;;;;;493978;237;27456;-73
2023/01/22 00:21:08;;;;;;;18.77;11.40;;;-1.40;99.90;;;;;;493977;241;27473;-73
2023/01/22 00:23:09;;;;;;;18.25;11.85;;;-1.40;99.90;;;;;;494005;241;27598;-73
2023/01/22 00:25:11;;;;;;;19.23;12.57;;;-1.40;99.90;;;;;;494014;241;27627;-73
2023/01/22 00:27:12;;;;;;;19.98;12.93;;;-1.40;99.90;;;;;;494020;241;27591;-74
2023/01/22 00:29:13;;;;;;;19.42;13.05;;;-1.40;99.90;;;;;;494009;241;28776;-73
2023/01/22 00:31:14;;;;;;;20.55;11.15;;;-1.50;99.90;;;;;;494009;241;29011;-73
2023/01/22 00:33:15;;;;;;;23.73;14.30;;;-1.40;99.90;;;;;;494016;241;27504;-73
2023/01/22 00:35:17;;;;;;;18.95;11.85;;;-1.50;99.90;;;;;;494009;241;27473;-73
2023/01/22 00:37:19;;;;;;;21.05;12.40;;;-1.40;99.90;;;;;;494022;241;27596;-73
2023/01/22 00:39:19;;;;;;;17.98;11.80;;;-1.40;99.90;;;;;;494003;241;27585;-73
2023/01/22 00:41:20;;;;;;;19.25;12.32;;;-1.40;99.90;;;;;;494031;241;27960;-73
2023/01/22 00:43:22;;;;;;;17.83;12.68;;;-1.40;99.90;;;;;;494025;241;28073;-73
2023/01/22 00:45:23;;;;;;;19.58;12.90;;;-1.30;99.90;;;;;;494004;241;27492;-72
2023/01/22 00:47:24;;;;;;;19.67;12.20;;;-1.30;99.90;;;;;;494029;241;27584;-73
2023/01/22 00:49:26;;;;;;;22.02;12.82;;;-1.30;99.90;;;;;;494023;241;28195;-73
2023/01/22 00:51:27;;;;;;;18.52;11.93;;;-1.30;99.90;;;;;;494010;241;27464;-74
2023/01/22 00:53:28;;;;;;;21.58;12.00;;;-1.30;99.90;;;;;;494058;241;27938;-73
2023/01/22 00:55:29;;;;;;;24.17;12.52;;;-1.30;99.90;;;;;;494005;241;29139;-73
2023/01/22 00:57:31;;;;;;;24.50;12.95;;;-1.40;99.90;;;;;;494053;241;27588;-73
2023/01/22 00:59:32;;;;;;;17.05;10.98;;;-1.40;99.90;;;;;;494035;241;27489;-73
2023/01/22 01:01:33;;;;;;;18.42;11.32;;;-1.40;99.90;;;;;;494034;241;27542;-73
2023/01/22 01:03:35;;;;;;;18.45;11.93;;;-1.40;99.90;;;;;;494078;241;27568;-73
2023/01/22 01:05:36;;;;;;;19.50;12.90;;;-1.30;99.90;;;;;;493995;241;27929;-73
2023/01/22 01:07:37;;;;;;;18.92;11.90;;;-1.30;99.90;;;;;;494044;241;28043;-73
2023/01/22 01:09:38;;;;;;;17.87;10.95;;;-1.30;99.90;;;;;;494013;237;27528;-73
2023/01/22 01:11:39;;;;;;;18.37;11.70;;;-1.30;99.90;;;;;;493976;241;27581;-73
2023/01/22 01:13:41;;;;;;;18.08;11.38;;;-1.30;99.90;;;;;;494013;241;27525;-73
2023/01/22 01:15:42;;;;;;;18.27;12.45;;;-1.30;99.90;;;;;;493979;241;27572;-73
2023/01/22 01:17:45;;;;;;;18.80;11.70;;;-1.30;99.90;;;;;;494016;241;27524;-73
2023/01/22 01:19:44;;;;;;;17.30;11.10;;;-1.40;99.90;;;;;;493952;241;27993;-73
2023/01/22 01:21:46;;;;;;;17.40;11.93;;;-1.30;99.90;;;;;;494031;241;27469;-73
2023/01/22 01:23:47;;;;;;;17.52;11.57;;;-1.40;99.90;;;;;;494002;241;27552;-73
2023/01/22 01:25:48;;;;;;;19.95;12.10;;;-1.30;99.90;;;;;;493982;241;27459;-73
2023/01/22 01:27:49;;;;;;;19.25;13.13;;;-1.30;99.90;;;;;;494014;241;27510;-74
2023/01/22 01:29:51;;;;;;;17.83;11.75;;;-1.30;99.90;;;;;;493917;241;27533;-73
2023/01/22 01:31:53;;;;;;;17.20;11.75;;;-1.30;99.90;;;;;;494011;241;28011;-72
2023/01/22 01:33:53;;;;;;;17.17;12.05;;;-1.30;99.90;;;;;;493963;241;28203;-73
2023/01/22 01:35:54;;;;;;;18.05;12.32;;;-1.30;99.90;;;;;;493945;240;27578;-73
2023/01/22 01:37:56;;;;;;;18.00;11.55;;;-1.40;99.90;;;;;;493993;237;27512;-73
2023/01/22 01:39:57;;;;;;;19.55;12.35;;;-1.30;99.90;;;;;;494030;241;27857;-73
2023/01/22 01:41:58;;;;;;;28.48;14.50;;;-1.30;99.90;;;;;;494019;241;27573;-73
2023/01/22 01:44:00;;;;;;;18.62;12.63;;;-1.40;99.90;;;;;;494017;241;27962;-73
2023/01/22 01:46:01;;;;;;;21.05;12.85;;;-1.40;99.90;;;;;;493998;241;28066;-73
2023/01/22 01:48:02;;;;;;;20.50;12.07;;;-1.30;99.90;;;;;;493964;241;27510;-73
2023/01/22 01:50:03;;;;;;;18.40;12.55;;;-1.30;99.90;;;;;;493992;241;27639;-73
2023/01/22 01:52:05;;;;;;;18.95;12.82;;;-1.30;99.90;;;;;;494016;241;27481;-73
2023/01/22 01:54:06;;;;;;;21.45;12.32;;;-1.40;99.90;;;;;;494014;241;27592;-73
2023/01/22 01:56:07;;;;;;;20.67;12.43;;;-1.40;99.90;;;;;;493991;241;27479;-73
2023/01/22 01:58:09;;;;;;;24.05;13.88;;;-1.30;99.90;;;;;;494011;241;28012;-73
2023/01/22 02:00:10;;;;;;;22.75;13.55;;;-1.30;99.90;;;;;;494014;241;27536;-73
2023/01/22 02:02:11;;;;;;;20.05;13.13;;;-1.20;99.90;;;;;;494014;241;27518;-73
2023/01/22 02:04:12;;;;;;;22.67;13.13;;;-1.30;99.90;;;;;;493940;241;27493;-73
2023/01/22 02:06:13;;;;;;;20.67;13.35;;;-1.30;99.90;;;;;;494017;241;27475;-73
2023/01/22 02:08:15;;;;;;;19.60;12.50;;;-1.20;99.90;;;;;;493755;241;27457;-74
2023/01/22 02:10:16;;;;;;;17.33;11.52;;;-1.20;99.90;;;;;;494000;239;27959;-73
2023/01/22 02:12:17;;;;;;;18.95;12.30;;;-1.20;99.90;;;;;;493966;241;28059;-74
2023/01/22 02:14:18;;;;;;;22.08;13.70;;;-1.10;99.90;;;;;;494039;241;27524;-72
2023/01/22 02:16:20;;;;;;;21.33;12.55;;;-1.20;99.90;;;;;;493994;241;27516;-73
2023/01/22 02:18:21;;;;;;;21.40;12.57;;;-1.20;99.90;;;;;;493993;241;27510;-73
2023/01/22 02:20:22;;;;;;;19.95;12.30;;;-1.10;99.90;;;;;;493847;241;27537;-73
2023/01/22 02:22:23;;;;;;;23.23;13.32;;;-1.10;99.90;;;;;;494021;241;28000;-73
2023/01/22 02:24:25;;;;;;;21.77;14.20;;;-1.10;99.90;;;;;;493990;241;29073;-73
2023/01/22 02:26:26;;;;;;;18.17;12.55;;;-1.10;99.90;;;;;;494016;241;27639;-73
2023/01/22 02:28:27;;;;;;;19.23;12.37;;;-1.10;99.90;;;;;;494012;241;27473;-73
2023/01/22 02:30:29;;;;;;;22.40;12.75;;;-1.10;99.90;;;;;;494007;241;27502;-73
2023/01/22 02:32:30;;;;;;;21.83;13.20;;;-1.10;99.90;;;;;;493853;241;27466;-73
2023/01/22 02:34:31;;;;;;;19.20;12.63;;;-1.20;99.90;;;;;;494012;241;27968;-73
2023/01/22 02:36:32;;;;;;;20.33;13.50;;;-1.10;99.90;;;;;;494009;241;28006;-73
2023/01/22 02:38:34;;;;;;;17.85;12.35;;;-1.10;99.90;;;;;;494042;241;27538;-73
2023/01/22 02:40:35;;;;;;;21.25;14.48;;;-1.00;99.90;;;;;;494034;241;27504;-73
2023/01/22 02:42:36;;;;;;;25.25;14.18;;;-1.10;99.90;;;;;;493905;241;27540;-73
2023/01/22 02:44:37;;;;;;;18.37;12.57;;;-1.30;99.90;;;;;;494011;241;27518;-73
2023/01/22 02:46:39;;;;;;;19.80;13.23;;;-1.20;99.90;;;;;;494032;241;27628;-73
2023/01/22 02:48:40;;;;;;;20.33;12.85;;;-1.10;99.90;;;;;;494033;241;27908;-73
2023/01/22 02:50:43;;;;;;;19.55;12.90;;;-1.00;99.90;;;;;;494014;241;27546;-73
2023/01/22 02:52:42;;;;;;;23.12;14.00;;;-1.00;99.90;;;;;;493888;241;27576;-73
2023/01/22 02:54:44;;;;;;;21.48;13.40;;;-1.10;99.90;;;;;;494012;241;27485;-73
2023/01/22 02:56:45;;;;;;;24.90;14.65;;;-1.10;99.90;;;;;;494009;237;27640;-73
2023/01/22 02:58:46;;;;;;;22.15;13.75;;;-1.10;99.90;;;;;;494044;241;27483;-73
2023/01/22 03:00:47;;;;;;;20.27;13.15;;;-1.00;99.90;;;;;;494010;241;27966;-73
2023/01/22 03:02:49;;;;;;;20.20;13.00;;;-1.00;99.90;;;;;;494006;241;27928;-73
2023/01/22 03:04:50;;;;;;;21.00;12.70;;;-1.00;99.90;;;;;;493977;241;27494;-73
2023/01/22 03:06:51;;;;;;;21.62;14.15;;;-1.00;99.90;;;;;;493992;241;27513;-73
2023/01/22 03:08:52;;;;;;;22.25;13.45;;;-1.00;99.90;;;;;;493995;241;27488;-73
2023/01/22 03:10:54;;;;;;;24.00;13.75;;;-1.20;99.90;;;;;;494004;241;27533;-73
2023/01/22 03:22:14;;;;;;;21.52;13.35;;;-0.90;99.90;;;;;;493986;237;28773;-73
2023/01/22 03:24:14;;;;;;;19.17;12.57;;;-0.90;99.90;;;;;;493965;241;28760;-73
2023/01/22 03:26:16;;;;;;;21.50;13.05;;;-0.90;99.90;;;;;;493977;241;27514;-73
2023/01/22 03:28:18;;;;;;;20.15;13.62;;;-1.00;99.90;;;;;;493979;241;27541;-73
2023/01/22 03:30:18;;;;;;;18.05;12.13;;;-1.00;99.90;;;;;;493942;241;27561;-73
2023/01/22 03:32:19;;;;;;;20.02;11.80;;;-0.90;99.90;;;;;;493994;241;27497;-73
2023/01/22 03:34:21;;;;;;;21.10;12.52;;;-0.90;99.90;;;;;;493815;241;28071;-73
2023/01/22 03:36:22;;;;;;;24.33;14.05;;;-0.90;99.90;;;;;;493987;241;29088;-73
2023/01/22 03:38:23;;;;;;;22.73;12.43;;;-0.90;99.90;;;;;;493987;241;27564;-73
2023/01/22 03:40:25;;;;;;;20.33;11.95;;;-0.90;99.90;;;;;;493987;241;27601;-73
2023/01/22 03:42:26;;;;;;;20.88;12.70;;;-0.90;99.90;;;;;;494031;241;27525;-73
2023/01/22 03:44:27;;;;;;;19.50;12.75;;;-0.90;99.90;;;;;;494016;241;27527;-73
2023/01/22 03:46:28;;;;;;;22.87;13.00;;;-0.90;99.90;;;;;;494004;241;28049;-73
2023/01/22 03:48:30;;;;;;;18.30;11.60;;;-0.90;99.90;;;;;;493988;241;27986;-73
2023/01/22 03:50:31;;;;;;;19.37;12.10;;;-0.90;99.90;;;;;;493999;239;27524;-73
2023/01/22 03:52:32;;;;;;;20.62;12.80;;;-0.90;99.90;;;;;;493995;241;27520;-73
2023/01/22 03:54:33;;;;;;;19.52;12.43;;;-0.90;99.90;;;;;;493960;241;27474;-73
2023/01/22 03:56:35;;;;;;;20.90;12.18;;;-0.90;99.90;;;;;;493968;241;27513;-73
2023/01/22 03:58:36;;;;;;;20.62;13.07;;;-0.80;99.90;;;;;;494011;241;27465;-72
2023/01/22 04:00:37;;;;;;;24.08;13.60;;;-0.80;99.90;;;;;;494046;241;28002;-73
2023/01/22 04:02:38;;;;;;;20.58;13.00;;;-0.90;99.90;;;;;;494024;241;27525;-73
2023/01/22 04:04:40;;;;;;;21.15;13.48;;;-0.90;99.90;;;;;;494022;241;27483;-73
2023/01/22 04:06:41;;;;;;;20.20;12.35;;;-0.90;99.90;;;;;;494028;241;27514;-73
2023/01/22 04:08:42;;;;;;;21.12;13.18;;;-0.90;99.90;;;;;;494040;241;27469;-73
2023/01/22 04:10:43;;;;;;;21.85;13.55;;;-0.80;99.90;;;;;;493979;241;28026;-73
2023/01/22 04:12:45;;;;;;;19.60;13.23;;;-0.90;99.90;;;;;;494026;241;27968;-73
2023/01/22 04:14:46;;;;;;;24.58;15.10;;;-0.90;99.90;;;;;;494023;241;27465;-73
2023/01/22 04:16:47;;;;;;;16.40;11.48;;;-0.80;99.90;;;;;;493994;241;27492;-73
2023/01/22 04:18:49;;;;;;;20.62;13.40;;;-0.90;99.90;;;;;;494039;241;27450;-73
2023/01/22 04:20:50;;;;;;;24.05;14.30;;;-0.80;99.90;;;;;;494011;241;27612;-73
2023/01/22 04:22:51;;;;;;;20.33;12.68;;;-0.80;99.90;;;;;;494036;241;27556;-73
2023/01/22 04:24:53;;;;;;;22.13;13.52;;;-0.80;99.90;;;;;;493984;241;27937;-73
2023/01/22 04:26:54;;;;;;;19.20;11.70;;;-0.80;99.90;;;;;;494052;241;29174;-73
2023/01/22 04:28:55;;;;;;;23.20;14.75;;;-0.80;99.90;;;;;;494013;241;27498;-73
2023/01/22 04:30:56;;;;;;;21.62;13.65;;;-0.80;99.90;;;;;;494071;241;27558;-73
2023/01/22 04:32:57;;;;;;;22.73;14.18;;;-0.80;99.90;;;;;;494083;241;27533;-73
2023/01/22 04:34:59;;;;;;;24.00;14.87;;;-0.80;99.90;;;;;;494056;241;27473;-73
2023/01/22 04:37:00;;;;;;;21.15;13.50;;;-0.80;99.90;;;;;;494014;241;28001;-73
2023/01/22 04:39:01;;;;;;;21.62;13.20;;;-0.80;99.90;;;;;;494002;241;28706;-73
2023/01/22 04:41:02;;;;;;;19.98;13.80;;;-0.80;99.90;;;;;;494003;241;27481;-73
2023/01/22 04:43:04;;;;;;;20.25;13.88;;;-0.80;99.90;;;;;;494040;241;27502;-73
2023/01/22 04:45:05;;;;;;;24.25;13.10;;;-0.90;99.90;;;;;;493997;241;27558;-73
2023/01/22 04:47:06;;;;;;;18.00;12.52;;;-0.90;99.90;;;;;;494011;241;27626;-73
2023/01/22 04:49:08;;;;;;;21.12;13.10;;;-0.90;99.90;;;;;;494007;241;27466;-73
2023/01/22 04:51:09;;;;;;;22.08;13.13;;;-0.90;99.90;;;;;;494045;241;27959;-73
2023/01/22 04:53:10;;;;;;;16.98;11.48;;;-0.80;99.90;;;;;;494017;241;27600;-73
2023/01/22 04:55:11;;;;;;;20.50;12.75;;;-0.80;99.90;;;;;;493997;241;27524;-73
2023/01/22 04:57:13;;;;;;;14.65;10.10;;;-0.80;99.90;;;;;;494003;241;27523;-73
2023/01/22 04:59:14;;;;;;;17.77;11.77;;;-0.70;99.90;;;;;;494004;239;27961;-73
2023/01/22 05:01:15;;;;;;;19.85;11.75;;;-0.70;99.90;;;;;;493999;241;27492;-73
2023/01/22 05:03:16;;;;;;;19.70;12.27;;;-0.70;99.90;;;;;;494009;241;28072;-73
2023/01/22 05:05:18;;;;;;;19.25;12.32;;;-0.80;99.90;;;;;;493933;241;27945;-73
2023/01/22 05:07:19;;;;;;;19.42;12.23;;;-0.70;99.90;;;;;;493883;241;27608;-73
2023/01/22 05:09:20;;;;;;;20.55;13.00;;;-0.70;99.90;;;;;;493997;241;27505;-73
2023/01/22 05:11:21;;;;;;;19.87;12.15;;;-0.70;99.90;;;;;;493944;241;27522;-73
2023/01/22 05:13:23;;;;;;;17.92;11.60;;;-0.70;99.90;;;;;;493978;241;27649;-73
2023/01/22 05:15:24;;;;;;;18.35;11.43;;;-0.70;99.90;;;;;;493953;241;28063;-73
2023/01/22 05:17:25;;;;;;;17.85;12.48;;;-0.80;99.90;;;;;;493952;241;29181;-73
2023/01/22 05:19:26;;;;;;;18.90;12.88;;;-0.70;99.90;;;;;;494011;241;27593;-73
2023/01/22 05:21:28;;;;;;;17.10;11.65;;;-0.70;99.90;;;;;;493958;241;27542;-73
2023/01/22 05:23:29;;;;;;;19.00;12.15;;;-0.70;99.90;;;;;;493990;241;27524;-73
2023/01/22 05:25:30;;;;;;;18.75;11.95;;;-0.70;99.90;;;;;;494000;241;27478;-74
2023/01/22 05:27:31;;;;;;;19.02;11.95;;;-0.70;99.90;;;;;;494020;241;27629;-73
2023/01/22 05:29:33;;;;;;;19.55;13.32;;;-0.90;99.90;;;;;;493987;241;28105;-73
2023/01/22 05:31:34;;;;;;;18.40;11.27;;;-0.80;99.90;;;;;;494032;241;27564;-73
2023/01/22 05:33:35;;;;;;;19.05;12.13;;;-0.70;99.90;;;;;;493978;241;27597;-72
2023/01/22 05:35:37;;;;;;;26.33;13.20;;;-0.70;99.90;;;;;;494001;241;27545;-73
2023/01/22 05:37:38;;;;;;;16.90;10.93;;;-0.70;99.90;;;;;;494004;241;27507;-73
2023/01/22 05:39:39;;;;;;;20.17;11.82;;;-0.80;99.90;;;;;;494021;241;27547;-73
2023/01/22 05:41:40;;;;;;;17.55;11.10;;;-0.80;99.90;;;;;;494006;241;27986;-73
2023/01/22 05:43:42;;;;;;;17.95;11.30;;;-0.70;99.90;;;;;;494004;241;28145;-73
2023/01/22 05:45:43;;;;;;;15.90;10.98;;;-0.70;99.90;;;;;;494010;241;27469;-73
2023/01/22 05:47:44;;;;;;;19.95;12.13;;;-0.60;99.90;;;;;;493980;241;27605;-73
2023/01/22 05:49:45;;;;;;;17.33;11.05;;;-0.60;99.90;;;;;;494034;241;27631;-73
2023/01/22 05:51:47;;;;;;;16.83;11.43;;;-0.70;99.90;;;;;;494017;241;27564;-73
2023/01/22 05:53:48;;;;;;;15.30;10.25;;;-0.70;99.90;;;;;;494014;241;27970;-73
2023/01/22 05:55:49;;;;;;;16.62;10.77;;;-0.60;99.90;;;;;;494012;241;29138;-73
2023/01/22 05:57:50;;;;;;;16.52;11.00;;;-0.60;99.90;;;;;;494025;241;27484;-73
2023/01/22 05:59:52;;;;;;;17.30;11.43;;;-0.50;99.90;;;;;;494041;241;27589;-73
2023/01/22 06:01:53;;;;;;;18.08;11.10;;;-0.70;99.90;;;;;;494025;241;27877;-74
2023/01/22 06:03:54;;;;;;;14.45;10.65;;;-0.70;99.90;;;;;;494033;241;27610;-73
2023/01/22 06:05:55;;;;;;;14.85;10.20;;;-0.60;99.90;;;;;;494039;241;28774;-73
2023/01/22 06:07:57;;;;;;;14.25;10.23;;;-0.60;99.90;;;;;;493990;241;29165;-73
2023/01/22 06:09:58;;;;;;;15.45;10.25;;;-0.50;99.90;;;;;;494016;241;27506;-73
2023/01/22 06:11:59;;;;;;;13.65;9.63;;;-0.50;99.90;;;;;;494035;241;27456;-73
2023/01/22 06:14:00;;;;;;;18.83;11.40;;;-0.50;99.90;;;;;;493989;241;27502;-74
2023/01/22 06:16:02;;;;;;;15.50;9.85;;;-0.60;99.90;;;;;;494003;241;27525;-73
2023/01/22 06:18:03;;;;;;;14.77;9.23;;;-0.60;99.90;;;;;;494000;241;27560;-73
2023/01/22 06:20:04;;;;;;;14.40;9.65;;;-0.60;99.90;;;;;;493902;241;27942;-73
2023/01/22 06:22:05;;;;;;;13.95;10.20;;;-0.50;99.90;;;;;;494002;241;27913;-73
2023/01/22 06:24:07;;;;;;;18.52;11.60;;;-0.60;99.90;;;;;;493947;241;27517;-73
2023/01/22 06:26:08;;;;;;;14.40;9.95;;;-0.70;99.90;;;;;;494023;237;27500;-73
2023/01/22 06:28:09;;;;;;;19.73;10.90;;;-0.60;99.90;;;;;;494032;241;27473;-73
2023/01/22 06:30:11;;;;;;;18.17;11.43;;;-0.70;99.90;;;;;;494022;241;27506;-73
2023/01/22 06:32:12;;;;;;;16.90;10.68;;;-0.60;99.90;;;;;;494001;241;27518;-73
2023/01/22 06:34:13;;;;;;;14.05;10.02;;;-0.70;99.90;;;;;;493998;241;28047;-73
2023/01/22 06:36:14;;;;;;;13.43;9.00;;;-0.70;99.90;;;;;;494002;241;29096;-73
2023/01/22 06:38:16;;;;;;;12.55;8.50;;;-0.60;99.90;;;;;;494000;241;27469;-73
2023/01/22 06:40:17;;;;;;;14.95;9.70;;;-0.50;99.90;;;;;;493996;241;27570;-73
2023/01/22 06:42:18;;;;;;;14.63;9.43;;;-0.60;99.90;;;;;;493993;241;27563;-73
2023/01/22 06:44:19;;;;;;;11.63;8.70;;;-0.60;99.90;;;;;;494003;241;27595;-73
2023/01/22 06:46:21;;;;;;;12.52;9.52;;;-0.70;99.90;;;;;;494032;241;27499;-73
2023/01/22 06:48:22;;;;;;;15.75;9.73;;;-0.70;99.90;;;;;;493991;238;27957;-73
2023/01/22 06:50:23;;;;;;;15.27;9.98;;;-0.70;99.90;;;;;;494031;239;29184;-74
2023/01/22 06:52:24;;;;;;;13.13;8.98;;;-0.60;99.90;;;;;;493982;241;27510;-73
2023/01/22 06:54:26;;;;;;;13.65;9.27;;;-0.70;99.90;;;;;;493947;241;27623;-73
2023/01/22 06:56:27;;;;;;;14.18;9.30;;;-0.60;99.90;;;;;;493981;241;27510;-73
2023/01/22 06:58:28;;;;;;;13.18;9.50;;;-0.60;99.90;;;;;;493946;241;27465;-74
2023/01/22 07:00:29;;;;;;;13.68;8.90;;;-0.70;99.90;;;;;;493992;241;27584;-73
2023/01/22 07:02:31;;;;;;;15.95;9.27;;;-0.70;99.90;;;;;;493986;241;27474;-73
2023/01/22 07:04:32;;;;;;;12.45;8.32;;;-0.70;99.90;;;;;;494019;241;27966;-73
2023/01/22 07:06:33;;;;;;;13.43;9.00;;;-0.70;99.90;;;;;;494000;241;29172;-73
2023/01/22 07:08:34;;;;;;;12.68;9.40;;;-0.70;99.90;;;;;;494020;241;27596;-73
2023/01/22 07:10:36;;;;;;;10.13;7.45;;;-0.60;99.90;;;;;;494009;241;27587;-73
2023/01/22 07:12:37;;;;;;;10.80;8.05;;;-0.60;99.90;;;;;;493992;241;27515;-73
2023/01/22 07:14:38;;;;;;;10.73;8.82;;;-0.50;99.90;;;;;;494005;241;27491;-73
2023/01/22 07:16:39;;;;;;;12.63;8.98;;;-0.50;99.90;;;;;;494023;241;27607;-73
2023/01/22 07:18:41;;;;;;;13.18;9.27;;;-0.60;99.90;;;;;;494002;241;27478;-73
2023/01/22 07:20:42;;;;;;;13.25;9.32;;;-0.60;99.90;;;;;;493786;241;28125;-73
2023/01/22 07:22:43;;;;;;;14.65;9.85;;;-0.60;99.90;;;;;;494018;241;27900;-73
2023/01/22 07:24:44;;;;;;;12.57;9.40;;;-0.60;99.90;;;;;;494019;241;27476;-73
2023/01/22 07:26:47;;;;;;;12.57;9.20;;;-0.60;99.90;;;;;;493986;241;27514;-73
2023/01/22 07:28:47;;;;;;;12.00;9.18;;;-0.60;99.90;;;;;;493934;241;27473;-73
2023/01/22 07:30:48;;;;;;;11.27;8.98;;;-0.60;99.90;;;;;;493992;241;27547;-73
2023/01/22 07:32:49;;;;;;;11.35;8.80;;;-0.60;99.90;;;;;;494005;241;27473;-73
2023/01/22 07:34:51;;;;;;;13.43;9.27;;;-0.70;99.90;;;;;;493980;241;28027;-73
2023/01/22 07:36:52;;;;;;;11.05;7.90;;;-0.60;99.90;;;;;;494029;241;27983;-73
2023/01/22 07:38:53;;;;;;;14.13;8.43;;;-0.60;99.90;;;;;;494025;241;28001;-73
2023/01/22 07:40:55;;;;;;;13.73;10.20;;;-0.60;99.90;;;;;;494031;237;27588;-73
2023/01/22 07:42:56;;;;;;;11.40;8.45;;;-0.60;99.90;;;;;;494023;241;27589;-73
2023/01/22 07:44:57;;;;;;;11.85;8.52;;;-0.60;99.90;;;;;;494021;241;27472;-73
2023/01/22 07:46:58;;;;;;;11.80;9.20;;;-0.60;99.90;;;;;;494007;240;27517;-73
2023/01/22 07:49:00;;;;;;;12.95;8.95;;;-0.60;99.90;;;;;;494021;241;27560;-73
2023/01/22 07:51:01;;;;;;;11.45;9.05;;;-0.70;99.90;;;;;;494005;241;27964;-73
2023/01/22 07:53:02;;;;;;;13.55;8.85;;;-0.60;99.90;;;;;;493952;241;28726;-72
2023/01/22 07:55:03;;;;;;;10.10;8.13;;;-0.60;99.90;;;;;;493986;241;27476;-73
2023/01/22 07:57:05;;;;;;;12.30;9.73;;;-0.50;99.90;;;;;;494010;241;27533;-73
2023/01/22 07:59:06;;;;;;;9.88;8.35;;;-0.60;99.90;;;;;;493991;241;27482;-73
2023/01/22 08:01:07;;;;;;;12.05;9.70;;;-0.50;99.90;;;;;;493994;237;27605;-73
2023/01/22 08:03:13;;;;;;;12.27;9.40;;;-0.60;99.90;;;;;;493962;241;27580;-73
2023/01/22 08:05:13;;;;;;;10.93;8.52;;;-0.60;99.90;;;;;;493891;241;27854;-72
2023/01/22 08:07:14;;;;;;;12.77;8.75;;;-0.50;99.90;;;;;;493993;241;27478;-73
2023/01/22 08:09:23;;;;;;;11.52;8.30;;;-0.50;99.90;;;;;;493891;241;27531;-73
2023/01/22 08:11:16;;;;;;;10.45;8.40;;;-0.50;99.90;;;;;;493353;241;27908;-73
2023/01/22 08:13:18;;;;;;;15.02;9.55;;;-0.50;99.90;;;;;;493966;241;29105;-73
2023/01/22 08:15:19;;;;;;;11.57;8.30;;;-0.40;99.90;;;;;;493984;237;27588;-73
2023/01/22 08:17:20;;;;;;;11.05;7.57;;;-0.50;99.90;;;;;;494007;241;27484;-73
2023/01/22 08:19:21;;;;;;;9.95;7.80;;;-0.50;99.90;;;;;;494003;241;28141;-73
2023/01/22 08:21:23;;;;;;;12.70;9.07;;;-0.50;99.90;;;;;;493989;239;27498;-74
2023/01/22 08:23:24;;;;;;;11.23;9.02;;;-0.40;99.90;;;;;;493969;241;27501;-73
2023/01/22 08:25:25;;;;;;;14.30;9.52;;;-0.40;99.90;;;;;;493991;241;27522;-73
2023/01/22 08:27:26;;;;;;;12.50;8.70;;;-0.40;99.90;;;;;;493984;241;27929;-74
2023/01/22 08:29:28;;;;;;;14.10;8.52;;;-0.30;99.90;;;;;;494001;241;28064;-72
2023/01/22 08:31:29;;;;;;;10.75;7.62;;;-0.30;99.90;;;;;;494015;241;27549;-73
2023/01/22 08:33:30;;;;;;;10.60;7.62;;;-0.20;99.90;;;;;;494010;241;27501;-73
2023/01/22 08:35:31;;;;;;;9.10;7.70;;;-0.30;99.90;;;;;;493940;241;27858;-73
2023/01/22 08:37:33;;;;;;;11.20;7.90;;;-0.20;99.90;;;;;;493956;241;27512;-73
2023/01/22 08:39:34;;;;;;;10.18;8.23;;;-0.20;99.90;;;;;;493971;241;27634;-73
2023/01/22 08:41:35;;;;;;;12.48;8.77;;;-0.10;99.90;;;;;;493986;241;27563;-73
2023/01/22 08:43:36;;;;;;;11.93;9.02;;;-0.30;99.90;;;;;;493977;241;28075;-73
2023/01/22 08:45:38;;;;;;;11.57;8.30;;;-0.30;99.90;;;;;;493976;241;28097;-73
2023/01/22 08:47:39;;;;;;;10.13;7.97;;;-0.30;99.90;;;;;;493998;237;27475;-73
2023/01/22 08:49:40;;;;;;;13.65;8.88;;;-0.30;99.90;;;;;;493992;241;27497;-73
2023/01/22 08:51:42;;;;;;;12.90;8.30;;;-0.40;99.90;;;;;;494014;241;27465;-73
2023/01/22 08:53:43;;;;;;;12.02;9.13;;;-0.30;99.90;;;;;;494002;241;27513;-73
2023/01/22 08:55:44;;;;;;;11.07;8.65;;;-0.30;99.90;;;;;;494006;241;27510;-73
2023/01/22 08:57:45;;;;;;;11.57;7.78;;;-0.30;99.90;;;;;;494011;241;27933;-73
2023/01/22 08:59:47;;;;;;;9.43;7.82;;;-0.30;99.90;;;;;;494017;241;27988;-73
2023/01/22 09:01:48;;;;;;;9.90;7.97;;;-0.10;99.90;;;;;;494015;241;29015;-73
2023/01/22 09:03:49;;;;;;;12.82;8.73;;;-0.10;99.90;;;;;;494052;237;27616;-73
2023/01/22 09:05:50;;;;;;;9.23;7.62;;;0.10;99.90;;;;;;494054;241;27508;-73
2023/01/22 09:07:51;;;;;;;9.82;7.97;;;0.10;99.90;;;;;;493978;241;27470;-74
2023/01/22 09:09:53;;;;;;;8.27;7.35;;;0.20;99.90;;;;;;494053;241;27526;-73
2023/01/22 09:11:54;;;;;;;11.20;7.30;;;0.10;99.90;;;;;;494031;241;27481;-73
2023/01/22 09:13:55;;;;;;;9.15;7.30;;;-0.10;99.90;;;;;;493989;241;27522;-73
2023/01/22 09:15:56;;;;;;;8.35;6.68;;;0.00;99.90;;;;;;494019;237;27500;-74
2023/01/22 09:17:59;;;;;;;9.88;7.72;;;-0.20;99.90;;;;;;494029;241;27581;-73
2023/01/22 09:19:59;;;;;;;9.93;7.55;;;-0.10;99.90;;;;;;493984;241;28011;-73
2023/01/22 09:22:05;;;;;;;10.05;8.23;;;-0.10;99.90;;;;;;494015;241;27922;-73
2023/01/22 09:24:01;;;;;;;9.10;7.55;;;-0.10;99.90;;;;;;493663;241;27504;-73
2023/01/22 09:26:03;;;;;;;9.38;7.80;;;-0.10;99.90;;;;;;493993;241;27544;-73
2023/01/22 09:28:07;;;;;;;11.10;9.05;;;0.00;99.90;;;;;;494023;241;27477;-73
2023/01/22 09:30:05;;;;;;;8.75;7.30;;;0.00;99.90;;;;;;493789;241;27513;-73
2023/01/22 09:32:06;;;;;;;8.70;6.62;;;0.20;99.90;;;;;;494022;241;27473;-73
2023/01/22 09:34:08;;;;;;;7.80;7.00;;;0.00;99.90;;;;;;493992;241;27521;-73
2023/01/22 09:36:09;;;;;;;10.60;8.07;;;0.00;99.90;;;;;;494040;241;27502;-74
2023/01/22 09:38:10;;;;;;;10.20;8.35;;;0.10;99.90;;;;;;494008;241;27493;-73
2023/01/22 09:40:12;;;;;;;9.35;7.50;;;0.10;99.90;;;;;;494023;241;28076;-73
2023/01/22 09:42:13;;;;;;;8.30;7.20;;;0.00;99.90;;;;;;494013;241;28070;-74
2023/01/22 09:44:14;;;;;;;8.45;6.62;;;0.10;99.90;;;;;;493995;241;28059;-74
2023/01/22 09:46:15;;;;;;;8.07;6.97;;;0.10;99.90;;;;;;494030;237;28079;-74
2023/01/22 09:48:17;;;;;;;7.57;6.78;;;0.30;99.90;;;;;;494040;241;27487;-73
2023/01/22 09:50:18;;;;;;;7.40;6.60;;;0.20;99.90;;;;;;494022;241;27504;-74
2023/01/22 09:52:19;;;;;;;9.77;7.70;;;0.10;99.90;;;;;;494026;241;27549;-74
2023/01/22 09:54:20;;;;;;;7.85;7.05;;;0.20;99.90;;;;;;493988;241;27493;-73
2023/01/22 09:56:22;;;;;;;8.50;7.45;;;0.20;99.90;;;;;;494007;241;27566;-73
2023/01/22 09:58:23;;;;;;;8.63;7.10;;;0.20;99.90;;;;;;494014;241;27517;-74
2023/01/22 10:00:24;;;;;;;7.90;7.07;;;0.10;99.90;;;;;;494012;241;27594;-73
2023/01/22 10:02:25;;;;;;;8.68;7.40;;;0.10;99.90;;;;;;493979;241;27563;-73
2023/01/22 10:04:27;;;;;;;8.50;7.12;;;0.10;99.90;;;;;;493987;241;27570;-73
2023/01/22 10:06:29;;;;;;;7.75;6.80;;;0.10;99.90;;;;;;494026;241;27515;-73
2023/01/22 10:08:29;;;;;;;9.18;7.37;;;0.20;99.90;;;;;;493956;241;27497;-73
2023/01/22 10:10:30;;;;;;;8.90;7.35;;;0.10;99.90;;;;;;494024;241;28110;-73
2023/01/22 10:12:32;;;;;;;10.82;6.82;;;0.10;99.90;;;;;;494013;241;27998;-73
2023/01/22 10:14:33;;;;;;;9.05;7.82;;;0.20;99.90;;;;;;494003;241;28082;-73
2023/01/22 10:16:34;;;;;;;8.13;7.30;;;0.10;99.90;;;;;;494014;237;27598;-74
2023/01/22 10:18:36;;;;;;;9.00;7.75;;;0.10;99.90;;;;;;494043;241;27477;-73
2023/01/22 10:20:37;;;;;;;8.35;7.00;;;0.30;99.90;;;;;;494031;241;27545;-73
2023/01/22 10:22:38;;;;;;;8.38;7.03;;;0.10;99.90;;;;;;494019;241;27458;-73
2023/01/22 10:24:39;;;;;;;8.95;8.02;;;0.00;99.90;;;;;;494044;237;27496;-73
2023/01/22 10:26:40;;;;;;;9.50;7.57;;;0.00;99.90;;;;;;494029;241;27538;-73
2023/01/22 10:28:42;;;;;;;8.88;7.72;;;0.10;99.90;;;;;;494043;241;27479;-73